Latest Weather Observations for Hindmarsh Island

IDS60901

Issued at 6:01 pm CDT Tuesday 10 December 2019 (issued every 10 minutes, with the page automatically refreshed every 10 minutes)

About weather observations | Map of Adelaide area stations | Latest observations for Adelaide area | Other Formats
Station Details ID: 023894 Name: HINDMARSH ISLAND AWS Lat: -35.52 Lon: 138.82 Height: 11.0 m
Data from the previous 72 hours. | See also: Recent months at Hindmarsh Island
Date/Time
CDT
Temp
°C
App
Temp
°C
Dew
Point
°C
Rel
Hum
%
Delta-T
°C
Wind Press
QNH
hPa
Press
MSL
hPa
Rain since
9am
mm
Dir  Spd
km/h
Gust
km/h
Spd
kts
Gust
kts
10/06:00pm 16.4 10.1 9.8 65 3.4 SSW 33 41 18 22 1020.0 1020.0 0.0
10/05:30pm 17.0 10.8 10.1 64 3.6 S 33 37 18 20 1020.1 1020.1 0.0
10/05:00pm 16.9 10.5 9.3 61 4.0 SSW 33 41 18 22 1020.3 1020.3 0.0
10/04:30pm 17.5 11.2 9.7 60 4.1 S 33 39 18 21 1020.4 1020.4 0.0
10/04:00pm 17.8 12.0 10.7 63 3.8 S 32 37 17 20 1020.6 1020.6 0.0
10/03:30pm 17.0 10.6 8.4 57 4.4 S 32 41 17 22 1020.9 1020.9 0.0
10/03:00pm 17.8 11.9 8.9 56 4.6 S 30 37 16 20 1020.9 1020.9 0.0
10/02:30pm 18.0 12.2 9.6 58 4.4 S 30 37 16 20 1020.9 1020.9 0.0
10/02:00pm 17.1 11.4 8.3 56 4.5 S 28 35 15 19 1021.2 1021.2 0.0
10/01:30pm 17.5 12.1 9.4 59 4.2 S 28 35 15 19 1021.5 1021.5 0.0
10/01:00pm 17.4 11.6 9.6 60 4.1 SSE 30 39 16 21 1021.4 1021.4 0.0
10/12:30pm 17.0 11.4 10.1 64 3.6 SSE 30 33 16 18 1021.6 1021.6 0.0
10/12:00pm 16.6 12.1 10.2 66 3.4 S 24 32 13 17 1021.7 1021.7 0.0
10/11:30am 17.2 12.3 9.9 62 3.8 S 26 35 14 19 1021.8 1021.8 0.0
10/11:00am 16.2 11.2 9.6 65 3.4 S 26 30 14 16 1021.8 1021.8 0.0
10/10:30am 15.7 10.9 10.2 70 2.9 S 26 35 14 19 1021.6 1021.6 0.0
10/10:00am 15.7 10.4 9.8 68 3.1 S 28 32 15 17 1021.7 1021.7 0.0
10/09:30am 15.5 11.4 10.1 70 2.8 S 22 30 12 16 1021.5 1021.5 0.0
10/09:00am 15.4 11.4 10.4 72 2.6 SSE 22 28 12 15 1021.5 1021.5 0.0
10/08:30am 15.0 10.5 10.2 73 2.5 S 24 30 13 16 1021.1 1021.1 0.0
10/08:00am 14.6 9.9 10.8 78 2.0 SSE 26 32 14 17 1020.9 1020.9 0.0
10/07:30am 14.1 8.9 11.6 85 1.3 SSE 30 35 16 19 1020.9 1020.9 0.0
10/07:00am 14.7 10.4 12.0 84 1.5 S 26 32 14 17 1020.6 1020.6 0.0
10/06:30am 14.5 9.6 10.1 75 2.3 S 26 32 14 17 1020.5 1020.5 0.0
10/06:00am 14.4 9.2 11.6 83 1.5 S 30 39 16 21 1019.9 1019.9 0.0
10/05:30am 14.3 9.7 11.1 81 1.7 S 26 35 14 19 1019.8 1019.8 0.0
10/05:00am 14.1 9.2 11.4 84 1.4 S 28 33 15 18 1019.6 1019.6 0.0
10/04:30am 14.8 9.3 10.4 75 2.3 S 30 35 16 19 1019.5 1019.5 0.0
10/04:00am 14.6 9.9 10.6 77 2.1 S 26 35 14 19 1019.5 1019.5 0.0
10/03:30am 15.0 10.0 11.0 77 2.1 S 28 33 15 18 1019.5 1019.5 0.0
10/03:00am 14.4 8.9 10.6 78 2.0 SSW 30 35 16 19 1019.5 1019.5 0.0
10/02:30am 15.1 11.1 11.9 81 1.7 SSW 24 32 13 17 1019.6 1019.6 0.0
10/02:00am 14.8 9.8 10.8 77 2.1 SSW 28 35 15 19 1019.8 1019.8 0.0
10/01:30am 14.8 9.9 11.2 79 1.9 SSW 28 35 15 19 1019.8 1019.8 0.0
10/01:00am 15.2 11.1 11.4 78 2.0 S 24 33 13 18 1019.8 1019.8 0.0
10/12:30am 15.2 10.9 12.2 82 1.6 SSW 26 32 14 17 1019.9 1019.9 0.0
10/12:00am 15.0 10.7 12.1 83 1.6 SSW 26 30 14 16 1020.0 1020.0 0.0
 
Date/Time
CDT
Temp
°C
App
Temp
°C
Dew
Point
°C
Rel
Hum
%
Delta-T
°C
Wind Press
QNH
hPa
Press
MSL
hPa
Rain since
9am
mm
Dir  Spd
km/h
Gust
km/h
Spd
kts
Gust
kts
09/11:30pm 15.2 11.1 11.6 79 1.9 SSW 24 30 13 16 1019.7 1019.7 0.0
09/11:00pm 15.4 11.8 12.0 80 1.8 SW 22 28 12 15 1019.7 1019.7 0.0
09/10:30pm 15.8 12.0 12.5 81 1.8 SSW 24 28 13 15 1019.6 1019.6 0.0
09/10:00pm 15.6 12.1 12.2 80 1.9 SSW 22 28 12 15 1019.4 1019.4 0.0
09/09:30pm 15.5 12.6 12.4 82 1.7 SSW 19 22 10 12 1018.8 1018.8 0.0
09/09:00pm 15.7 11.6 12.8 83 1.6 SSW 26 32 14 17 1018.6 1018.6 0.0
09/08:30pm 15.7 12.4 12.8 83 1.6 S 22 32 12 17 1017.9 1017.9 0.0
09/08:00pm 15.8 11.3 12.7 82 1.7 SSW 28 33 15 18 1018.0 1018.0 0.0
09/07:30pm 16.1 10.9 12.8 81 1.8 SSW 32 37 17 20 1017.2 1017.2 0.0
09/07:00pm 16.0 11.1 12.7 81 1.8 SW 30 35 16 19 1018.4 1018.4 0.0
09/06:30pm 16.3 12.6 12.8 80 1.9 S 24 30 13 16 1016.9 1016.9 0.0
09/06:00pm 16.5 12.8 12.8 79 2.0 SSW 24 28 13 15 1017.3 1017.3 0.0
09/05:30pm 17.0 12.8 12.5 75 2.5 SW 26 32 14 17 1017.9 1017.9 0.0
09/05:00pm 17.3 12.8 12.6 74 2.6 SW 28 33 15 18 1018.2 1018.2 0.0
09/04:30pm 17.9 12.2 13.0 73 2.7 SW 35 43 19 23 1018.1 1018.1 0.0
09/04:00pm 17.6 11.0 12.7 73 2.7 SW 39 46 21 25 1018.4 1018.4 0.0
09/03:30pm 17.9 11.0 12.8 72 2.8 SW 41 52 22 28 1018.2 1018.2 0.0
09/03:00pm 17.6 11.0 12.7 73 2.7 SW 39 50 21 27 1017.3 1017.3 0.0
09/02:30pm 17.6 10.7 12.9 74 2.6 SW 41 50 22 27 1017.3 1017.3 0.0
09/02:00pm 17.8 12.3 13.7 77 2.3 SW 35 43 19 23 1016.7 1016.7 0.0
09/01:30pm 18.4 11.9 14.1 76 2.5 SW 41 50 22 27 1017.0 1017.0 0.0
09/01:00pm 19.3 14.5 14.6 74 2.7 SW 33 43 18 23 1017.1 1017.1 0.0
09/12:30pm 19.4 14.7 14.4 73 2.9 SW 32 39 17 21 1016.6 1016.6 0.0
09/12:00pm 19.8 14.9 13.7 68 3.5 SW 32 37 17 20 1016.2 1016.2 0.0
09/11:30am 19.9 14.7 14.5 71 3.1 SW 35 43 19 23 1016.1 1016.1 0.0
09/11:00am 19.9 14.8 13.6 67 3.6 SW 33 41 18 22 1015.9 1015.9 0.0
09/10:30am 20.2 15.3 14.3 69 3.4 SW 33 43 18 23 1015.7 1015.7 0.0
09/10:00am 19.6 14.3 14.2 71 3.1 SW 35 43 19 23 1015.5 1015.5 0.0
09/09:30am 19.2 14.4 14.5 74 2.7 SW 33 43 18 23 1015.2 1015.2 0.0
09/09:00am 19.2 14.2 14.0 72 3.0 WSW 33 43 18 23 1014.6 1014.6 0.0
09/08:30am 18.9 12.8 14.2 74 2.7 SW 39 48 21 26 1014.4 1014.4 0.0
09/08:00am 18.5 13.2 14.2 76 2.5 SW 35 46 19 25 1014.1 1014.1 0.0
09/07:30am 18.9 14.8 13.7 72 3.0 SW 28 37 15 20 1012.9 1012.9 0.0
09/07:00am 19.6 16.4 13.1 66 3.7 SW 22 28 12 15 1011.9 1011.8 0.0
09/06:30am 19.4 15.8 13.1 67 3.6 SW 24 28 13 15 1011.7 1011.6 0.0
09/06:00am 19.0 16.3 13.4 70 3.2 SW 20 28 11 15 1011.4 1011.3 0.0
09/05:30am 19.1 15.3 13.5 70 3.2 SW 26 33 14 18 1010.8 1010.7 0.0
09/05:00am 18.6 13.5 13.7 73 2.8 SW 33 44 18 24 1010.6 1010.5 0.0
09/04:30am 19.5 14.5 14.1 71 3.1 SW 33 44 18 24 1009.7 1009.6 0.0
09/04:00am 21.6 17.4 11.0 51 5.8 WSW 24 33 13 18 1009.5 1009.4 0.0
09/03:59am 21.6 17.7 10.7 50 6.0 W 22 33 12 18 1009.6 1009.5 0.0
09/03:30am 22.7 20.4 7.3 37 8.0 ENE 9 15 5 8 1008.1 1008.0 0.0
09/03:00am 22.8 20.7 8.1 39 7.8 SSW 9 15 5 8 1008.6 1008.5 0.0
09/02:30am 23.4 21.5 9.0 40 7.7 SSW 9 17 5 9 1009.0 1008.9 0.0
09/02:00am 24.7 21.5 0.9 21 11.1 N 7 17 4 9 1009.3 1009.2 0.0
09/01:30am 25.0 20.5 2.4 23 10.9 N 15 20 8 11 1009.4 1009.3 0.0
09/01:00am 25.8 20.8 1.2 20 11.6 NNE 17 20 9 11 1009.2 1009.1 0.0
09/12:30am 25.5 20.1 2.2 22 11.2 NNE 20 26 11 14 1009.2 1009.1 0.0
09/12:00am 25.3 20.5 4.4 26 10.5 NNE 19 26 10 14 1009.3 1009.2 0.0
 
Date/Time
CDT
Temp
°C
App
Temp
°C
Dew
Point
°C
Rel
Hum
%
Delta-T
°C
Wind Press
QNH
hPa
Press
MSL
hPa
Rain since
9am
mm
Dir  Spd
km/h
Gust
km/h
Spd
kts
Gust
kts
08/11:30pm 24.4 19.8 5.7 30 9.5 NNE 19 22 10 12 1009.4 1009.3 0.0
08/11:00pm 25.2 20.9 6.9 31 9.6 NNE 19 20 10 11 1009.4 1009.3 0.0
08/10:30pm 26.1 21.3 5.7 27 10.5 N 20 24 11 13 1009.5 1009.4 0.0
08/10:00pm 27.2 22.5 6.0 26 11.0 NNE 20 30 11 16 1009.5 1009.4 0.0
08/09:30pm 26.0 20.5 3.9 24 11.0 E 22 28 12 15 1009.4 1009.3 0.0
08/09:00pm 27.3 20.8 2.4 20 12.2 E 26 32 14 17 1009.4 1009.3 0.0
08/08:30pm 26.6 21.4 3.8 23 11.4 E 20 26 11 14 1009.7 1009.6 0.0
08/08:00pm 27.6 22.2 2.6 20 12.3 ESE 20 26 11 14 1009.9 1009.8 0.0
08/07:30pm 28.5 23.9 8.2 28 11.1 ESE 22 26 12 14 1010.2 1010.1 0.0
08/07:00pm 28.8 24.9 9.5 30 10.8 ESE 20 24 11 13 1010.2 1010.1 0.0
08/06:30pm 30.5 26.0 9.9 28 11.7 SE 24 26 13 14 1010.0 1009.9 0.0
08/06:00pm 32.0 27.4 9.5 25 12.8 SSE 24 28 13 15 1010.1 1010.0 0.0
08/05:30pm 32.4 27.5 8.6 23 13.3 SSE 24 26 13 14 1010.3 1010.2 0.0
08/05:00pm 32.3 27.0 8.5 23 13.3 SSE 26 32 14 17 1010.1 1010.0 0.0
08/04:52pm 32.5 27.1 8.0 22 13.6 ESE 26 32 14 17 1010.0 1009.9 0.0
08/04:30pm 38.0 31.5 2.5 11 18.6 E 26 37 14 20 1009.9 1009.8 0.0
08/04:00pm 38.0 30.9 1.1 10 18.9 E 28 35 15 19 1010.2 1010.1 0.0
08/03:30pm 37.3 29.1 0.6 10 18.6 E 33 41 18 22 1010.3 1010.2 0.0
08/03:00pm 37.5 29.9 0.7 10 18.7 ENE 30 41 16 22 1010.7 1010.6 0.0
08/02:30pm 37.1 29.5 0.4 10 18.5 ENE 30 39 16 21 1010.9 1010.8 0.0
08/02:00pm 36.8 29.3 1.5 11 18.1 ENE 30 39 16 21 1011.1 1011.0 0.0
08/01:30pm 36.1 28.2 1.0 11 17.7 ENE 32 39 17 21 1011.4 1011.3 0.0
08/01:00pm 36.0 29.0 2.1 12 17.4 ENE 28 35 15 19 1011.7 1011.6 0.0
08/12:30pm 34.1 26.7 1.8 13 16.3 NE 30 37 16 20 1011.9 1011.8 0.0
08/12:00pm 33.9 26.5 1.6 13 16.3 NE 30 39 16 21 1012.2 1012.1 0.0
08/11:30am 32.5 24.7 1.6 14 15.4 NE 32 43 17 23 1012.4 1012.3 0.0
08/11:00am 30.2 22.9 2.5 17 13.8 NE 30 39 16 21 1012.7 1012.7 0.0
08/10:30am 28.3 20.7 3.9 21 12.3 NE 33 44 18 24 1012.8 1012.8 0.0
08/10:00am 26.7 19.5 5.1 25 11.0 NNE 32 43 17 23 1013.3 1013.3 0.0
08/09:30am 24.3 17.1 6.1 31 9.3 NNE 33 43 18 23 1013.6 1013.6 0.0
08/09:00am 22.3 16.6 8.4 41 7.3 NNE 28 37 15 20 1013.9 1013.9 0.0
08/08:30am 19.9 13.8 8.3 47 6.0 NNE 30 41 16 22 1014.2 1014.2 0.0
08/08:00am 17.3 13.0 9.5 60 4.1 NNE 22 33 12 18 1014.4 1014.4 0.0
08/07:30am 15.2 12.0 10.0 71 2.7 NNE 17 22 9 12 1014.5 1014.5 0.0
08/07:00am 13.3 10.0 9.4 77 2.0 NNE 17 22 9 12 1014.3 1014.3 0.0
08/06:30am 12.0 8.1 8.8 81 1.6 NNE 19 22 10 12 1014.3 1014.3 0.0
08/06:00am 11.7 7.6 8.7 82 1.5 N 20 24 11 13 1014.5 1014.5 0.0
08/05:30am 11.5 9.6 9.1 85 1.2 NNE 9 13 5 7 1014.9 1014.9 0.0
08/05:00am 12.3 9.9 10.0 86 1.2 N 13 15 7 8 1014.9 1014.9 0.0
08/04:30am 12.2 10.1 9.9 86 1.2 NNE 11 13 6 7 1015.0 1015.0 0.0
08/04:00am 12.3 11.1 10.2 87 1.1 NNE 7 9 4 5 1015.2 1015.2 0.0
08/03:30am 11.5 10.2 9.1 85 1.2 N 6 7 3 4 1015.4 1015.4 0.0
08/03:00am 13.1 12.0 10.5 84 1.4 N 7 9 4 5 1015.4 1015.4 0.0
08/02:30am 13.0 11.4 10.2 83 1.4 N 9 11 5 6 1015.7 1015.7 0.0
08/02:00am 13.0 11.0 10.2 83 1.4 N 11 13 6 7 1015.8 1015.8 0.0
08/01:30am 13.0 11.4 10.2 83 1.4 NNW 9 11 5 6 1016.1 1016.1 0.0
08/01:00am 13.2 11.7 10.4 83 1.5 NNW 9 11 5 6 1016.4 1016.4 0.0
08/12:30am 13.2 11.6 10.2 82 1.5 NNW 9 11 5 6 1016.8 1016.8 0.0
08/12:00am 13.4 11.9 10.4 82 1.6 NNW 9 11 5 6 1017.0 1017.0 0.0
 
Date/Time
CDT
Temp
°C
App
Temp
°C
Dew
Point
°C
Rel
Hum
%
Delta-T
°C
Wind Press
QNH
hPa
Press
MSL
hPa
Rain since
9am
mm
Dir  Spd
km/h
Gust
km/h
Spd
kts
Gust
kts
07/11:30pm 13.8 11.9 10.6 81 1.7 NNE 11 11 6 6 1016.9 1016.9 0.0
07/11:00pm 13.7 12.1 10.3 80 1.8 NE 9 11 5 6 1017.2 1017.2 0.0
07/10:30pm 13.2 11.1 9.6 79 1.8 ENE 11 11 6 6 1017.5 1017.5 0.0
07/10:00pm 13.8 12.1 9.8 77 2.1 E 9 11 5 6 1017.9 1017.9 0.0
07/09:30pm 15.0 12.4 10.8 76 2.2 SE 15 19 8 10 1017.9 1017.9 0.0
07/09:00pm 15.1 11.7 10.5 74 2.4 SE 19 22 10 12 1017.9 1017.9 0.0
07/08:30pm 15.4 11.9 10.8 74 2.4 SSE 20 24 11 13 1017.8 1017.8 0.0
07/08:00pm 15.6 12.0 10.4 71 2.7 SSE 20 24 11 13 1017.7 1017.7 0.0
07/07:30pm 16.1 12.0 10.2 68 3.1 SSE 22 28 12 15 1017.6 1017.6 0.0
07/07:00pm 16.7 12.5 11.0 69 3.1 SSE 24 28 13 15 1017.4 1017.4 0.0
07/06:30pm 17.0 12.7 10.6 66 3.4 S 24 28 13 15 1017.1 1017.1 0.0

Latest Capital City Observations: Canberra | Sydney | Melbourne | Brisbane | Adelaide | Perth | Hobart | Darwin

Other formats

Comma delimited format used in spreadsheet applications
http://www.bom.gov.au/fwo/IDS60901/IDS60901.94677.axf

JavaScript Object Notation format (JSON) in row-major order
http://www.bom.gov.au/fwo/IDS60901/IDS60901.94677.json

Data quality

Most of these data are generated automatically and are frequently updated. Quality checks on data are not normally performed. It is possible for incorrect values to appear. Refer to information at About Latest Weather Observations and please check the disclaimer before using these data.